Time;durP1;ratioP1;P1;durP2;ratioP2;P2;SDS_P1;SDS_P2;PMS_P1;PMS_P2;Temp;Humidity;BMP_temperature;BMP_pressure;BME280_temperature;BME280_humidity;BME280_pressure;Samples;Min_cycle;Max_cycle;Signal;HPM_P1;HPM_P2
2023/10/17 00:01:34;;;;;;;0.20;0.20;;;5.00;99.90;;;;;;5107647;28;20370;-65
2023/10/17 00:06:50;;;;;;;0.20;0.20;;;5.00;99.90;;;;;;5083865;28;20047;-65
2023/10/17 00:09:24;;;;;;;0.10;0.10;;;4.90;99.90;;;;;;5118916;27;20036;-65
2023/10/17 00:11:58;;;;;;;0.10;0.10;;;4.90;99.90;;;;;;5086446;27;20052;-65
2023/10/17 00:14:26;;;;;;;0.10;0.10;;;4.80;99.90;;;;;;5086939;28;20071;-65
2023/10/17 00:16:56;;;;;;;0.17;0.17;;;4.80;99.90;;;;;;5088580;28;20031;-65
2023/10/17 00:19:31;;;;;;;0.13;0.13;;;4.90;99.90;;;;;;5090379;28;20130;-65
2023/10/17 00:22:02;;;;;;;0.10;0.10;;;4.90;99.90;;;;;;5084151;27;20050;-65
2023/10/17 00:24:28;;;;;;;0.08;0.08;;;4.90;99.90;;;;;;5083586;28;20050;-65
2023/10/17 00:26:54;;;;;;;0.08;0.08;;;5.00;99.90;;;;;;5084516;28;20031;-65
2023/10/17 00:29:20;;;;;;;0.08;0.08;;;5.00;99.90;;;;;;5085280;28;20465;-65
2023/10/17 00:31:46;;;;;;;0.30;0.30;;;5.10;99.90;;;;;;5103404;28;20047;-65
2023/10/17 00:34:23;;;;;;;0.28;0.10;;;5.10;99.90;;;;;;5120947;27;20043;-65
2023/10/17 00:36:49;;;;;;;0.20;0.20;;;5.10;99.90;;;;;;5087821;27;20035;-65
2023/10/17 00:39:23;;;;;;;1.10;0.47;;;5.10;99.90;;;;;;5081803;28;20058;-65
2023/10/17 00:42:09;;;;;;;1.27;1.20;;;5.10;99.90;;;;;;5081540;28;20044;-66
2023/10/17 00:44:39;;;;;;;0.38;0.32;;;5.10;99.90;;;;;;5098947;28;20506;-65
2023/10/17 00:47:08;;;;;;;0.55;0.15;;;5.10;99.90;;;;;;5113190;27;20039;-65
2023/10/17 00:49:42;;;;;;;0.10;0.10;;;5.10;99.90;;;;;;5080375;28;20028;-65
2023/10/17 00:52:17;;;;;;;0.20;0.20;;;5.10;99.90;;;;;;5119325;27;20040;-65
2023/10/17 00:54:44;;;;;;;3.42;0.60;;;5.10;99.90;;;;;;5083666;28;20031;-65
2023/10/17 00:57:10;;;;;;;0.40;0.38;;;5.10;99.90;;;;;;5083289;28;20077;-65
2023/10/17 00:59:36;;;;;;;0.35;0.15;;;5.00;99.90;;;;;;5080883;28;20066;-65
2023/10/17 01:02:07;;;;;;;0.38;0.20;;;5.00;99.90;;;;;;5084608;28;20123;-65
2023/10/17 01:04:40;;;;;;;0.10;0.10;;;5.00;99.90;;;;;;5084766;28;20425;-65
2023/10/17 01:07:07;;;;;;;1.17;0.20;;;5.00;99.90;;;;;;5118958;27;20119;-65
2023/10/17 01:09:35;;;;;;;0.10;0.10;;;4.90;99.90;;;;;;5087014;28;20505;-65
2023/10/17 01:12:08;;;;;;;0.17;0.17;;;4.90;99.90;;;;;;5085842;28;20108;-65
2023/10/17 01:14:35;;;;;;;1.20;0.22;;;4.90;99.90;;;;;;5085984;28;20061;-65
2023/10/17 01:17:05;;;;;;;0.32;0.32;;;4.90;99.90;;;;;;5085772;28;20039;-65
2023/10/17 01:19:33;;;;;;;0.10;0.10;;;4.80;99.90;;;;;;5116060;27;20533;-65
2023/10/17 01:21:58;;;;;;;0.20;0.20;;;4.80;99.90;;;;;;5081987;28;20553;-65
2023/10/17 01:24:25;;;;;;;0.22;0.22;;;4.80;99.90;;;;;;5084704;28;20042;-65
2023/10/17 01:26:52;;;;;;;0.20;0.20;;;4.70;99.90;;;;;;5087830;28;20040;-65
2023/10/17 01:29:18;;;;;;;0.20;0.20;;;4.70;99.90;;;;;;5084670;28;20047;-65
2023/10/17 01:31:48;;;;;;;0.20;0.20;;;4.60;99.90;;;;;;5086666;28;20402;-65
2023/10/17 01:34:14;;;;;;;0.10;0.10;;;4.50;99.90;;;;;;5079897;28;20418;-65
2023/10/17 01:36:42;;;;;;;0.10;0.10;;;4.50;99.90;;;;;;5116246;27;20032;-65
2023/10/17 01:39:10;;;;;;;0.32;0.30;;;4.50;99.90;;;;;;5116681;27;20062;-65
2023/10/17 01:41:38;;;;;;;0.10;0.10;;;4.60;99.90;;;;;;5118373;27;20564;-65
2023/10/17 01:44:04;;;;;;;0.10;0.10;;;4.60;99.90;;;;;;5081692;28;20047;-65
2023/10/17 01:46:30;;;;;;;0.10;0.10;;;4.60;99.90;;;;;;5085169;28;20521;-65
2023/10/17 01:49:00;;;;;;;0.10;0.10;;;4.60;99.90;;;;;;5083591;28;20040;-65
2023/10/17 01:51:27;;;;;;;0.10;0.10;;;4.60;99.90;;;;;;5081013;28;20401;-65
2023/10/17 01:53:53;;;;;;;0.10;0.10;;;4.50;99.90;;;;;;5118135;28;20039;-65
2023/10/17 01:56:26;;;;;;;0.30;0.30;;;4.50;99.90;;;;;;5085926;28;20031;-65
2023/10/17 01:58:55;;;;;;;0.10;0.10;;;4.50;99.90;;;;;;5081690;28;20662;-65
2023/10/17 02:01:25;;;;;;;0.20;0.20;;;4.50;99.90;;;;;;5118493;28;20074;-65
2023/10/17 02:04:03;;;;;;;0.00;0.00;;;4.50;99.90;;;;;;5083982;28;20039;-65
2023/10/17 02:06:33;;;;;;;0.10;0.10;;;4.50;99.90;;;;;;5085273;28;20079;-65
2023/10/17 02:08:59;;;;;;;0.13;0.13;;;4.40;99.90;;;;;;5119090;28;20521;-65
2023/10/17 02:11:43;;;;;;;0.28;0.10;;;4.40;99.90;;;;;;5083877;28;20044;-65
2023/10/17 02:14:09;;;;;;;1.17;0.30;;;4.50;99.90;;;;;;5112993;27;20059;-65
2023/10/17 02:16:35;;;;;;;0.10;0.10;;;4.40;99.90;;;;;;5081631;28;20467;-65
2023/10/17 02:19:07;;;;;;;0.10;0.10;;;4.40;99.90;;;;;;5115464;28;20039;-65
2023/10/17 02:21:38;;;;;;;0.45;0.15;;;4.30;99.90;;;;;;5080629;28;20032;-65
2023/10/17 02:24:07;;;;;;;0.10;0.10;;;4.30;99.90;;;;;;5080504;28;20478;-65
2023/10/17 02:26:42;;;;;;;0.28;0.17;;;4.30;99.90;;;;;;5118079;28;20040;-65
2023/10/17 02:29:12;;;;;;;0.10;0.10;;;4.30;99.90;;;;;;5082521;28;20501;-65
2023/10/17 02:31:40;;;;;;;0.10;0.10;;;4.20;99.90;;;;;;5113734;28;20059;-65
2023/10/17 02:34:09;;;;;;;0.10;0.10;;;4.30;99.90;;;;;;5077114;28;20044;-65
2023/10/17 02:36:35;;;;;;;0.22;0.22;;;4.20;99.90;;;;;;5080921;28;20395;-65
2023/10/17 02:39:00;;;;;;;0.08;0.08;;;4.20;99.90;;;;;;5084477;28;20171;-65
2023/10/17 02:41:26;;;;;;;0.10;0.10;;;4.20;99.90;;;;;;5081002;28;20098;-65
2023/10/17 02:43:55;;;;;;;0.10;0.10;;;4.10;99.90;;;;;;5082165;28;20043;-65
2023/10/17 02:46:28;;;;;;;0.10;0.10;;;4.10;99.90;;;;;;5080108;28;20039;-65
2023/10/17 02:48:54;;;;;;;;;;;4.00;99.90;;;;;;5114040;27;20032;-64
2023/10/17 02:53:50;;;;;;;0.20;0.20;;;3.90;99.90;;;;;;5083928;28;20544;-65
2023/10/17 02:56:20;;;;;;;0.10;0.10;;;3.90;99.90;;;;;;5080767;28;20100;-65
2023/10/17 02:59:12;;;;;;;0.10;0.10;;;3.90;99.90;;;;;;5113495;27;20073;-65
2023/10/17 03:01:42;;;;;;;0.10;0.10;;;3.90;99.90;;;;;;5100950;27;20040;-65
2023/10/17 03:04:17;;;;;;;0.38;0.38;;;3.90;99.90;;;;;;5082513;28;21002;-65
2023/10/17 03:06:47;;;;;;;0.20;0.20;;;4.00;99.90;;;;;;5090455;28;20119;-65
2023/10/17 03:14:40;;;;;;;0.10;0.10;;;4.00;99.90;;;;;;5086441;28;21855;-64
2023/10/17 03:17:07;;;;;;;0.28;0.20;;;3.90;99.90;;;;;;5081542;28;20044;-65
2023/10/17 03:19:34;;;;;;;0.10;0.10;;;3.90;99.90;;;;;;5105338;27;20119;-65
2023/10/17 03:22:16;;;;;;;0.10;0.10;;;3.80;99.90;;;;;;5087484;27;20042;-65
2023/10/17 03:24:42;;;;;;;0.20;0.20;;;3.80;99.90;;;;;;5082707;28;20057;-65
2023/10/17 03:27:11;;;;;;;1.00;0.60;;;3.80;99.90;;;;;;5090128;28;20052;-65
2023/10/17 03:29:41;;;;;;;0.10;0.10;;;3.80;99.90;;;;;;5118324;27;20115;-64
2023/10/17 03:32:11;;;;;;;0.13;0.13;;;3.80;99.90;;;;;;5082555;28;20044;-64
2023/10/17 03:34:37;;;;;;;0.10;0.10;;;3.80;99.90;;;;;;5118840;27;20036;-65
2023/10/17 03:39:52;;;;;;;0.28;0.28;;;3.90;99.90;;;;;;5114590;27;20056;-64
2023/10/17 03:45:16;;;;;;;0.35;0.35;;;3.80;99.90;;;;;;5083344;28;20141;-64
2023/10/17 03:47:47;;;;;;;0.45;0.22;;;3.80;99.90;;;;;;5081975;28;20058;-64
2023/10/17 03:50:31;;;;;;;0.10;0.10;;;3.70;99.90;;;;;;5118277;27;20091;-64
2023/10/17 03:53:15;;;;;;;0.00;0.00;;;3.70;99.90;;;;;;5116642;27;20052;-64
2023/10/17 03:55:43;;;;;;;0.10;0.10;;;3.70;99.90;;;;;;5085676;28;20035;-65
2023/10/17 03:58:19;;;;;;;0.30;0.30;;;3.80;99.90;;;;;;5089143;27;20035;-64
2023/10/17 04:00:46;;;;;;;0.15;0.15;;;3.70;99.90;;;;;;5115982;27;20122;-64
2023/10/17 04:03:21;;;;;;;0.30;0.30;;;3.70;99.90;;;;;;5113776;27;20055;-64
2023/10/17 04:08:38;;;;;;;0.10;0.10;;;3.60;99.90;;;;;;5087145;27;20127;-63
2023/10/17 04:13:53;;;;;;;0.30;0.30;;;3.60;99.90;;;;;;5113979;27;20054;-64
2023/10/17 04:16:33;;;;;;;0.20;0.20;;;3.50;99.90;;;;;;5116079;27;20044;-64
2023/10/17 04:19:07;;;;;;;0.52;0.43;;;3.50;99.90;;;;;;5091430;28;20071;-64
2023/10/17 04:21:38;;;;;;;0.20;0.20;;;3.50;99.90;;;;;;5091841;27;20417;-64
2023/10/17 04:24:09;;;;;;;0.22;0.20;;;3.40;99.90;;;;;;5118406;27;20733;-64
2023/10/17 04:26:35;;;;;;;0.10;0.10;;;3.50;99.90;;;;;;5085645;27;20044;-64
2023/10/17 04:29:17;;;;;;;0.15;0.13;;;3.50;99.90;;;;;;5110482;27;20054;-64
2023/10/17 04:31:43;;;;;;;0.10;0.10;;;3.50;99.90;;;;;;5081314;28;20079;-64
2023/10/17 04:34:14;;;;;;;0.60;0.30;;;3.50;99.90;;;;;;5086258;28;20075;-64
2023/10/17 04:36:41;;;;;;;0.22;0.22;;;3.50;99.90;;;;;;5087786;28;20041;-64
2023/10/17 04:44:21;;;;;;;0.10;0.10;;;3.60;99.90;;;;;;5080817;28;20063;-64
2023/10/17 04:49:30;;;;;;;0.13;0.13;;;3.60;99.90;;;;;;5096543;27;20047;-64
2023/10/17 04:52:06;;;;;;;0.10;0.10;;;3.50;99.90;;;;;;5082041;28;20093;-64
2023/10/17 04:57:05;;;;;;;0.28;0.20;;;3.50;99.90;;;;;;5080238;28;20127;-64
2023/10/17 06:18:49;;;;;;;0.25;0.20;;;3.00;99.90;;;;;;5075796;28;20593;-64
2023/10/17 06:21:19;;;;;;;0.05;0.05;;;3.00;99.90;;;;;;5112305;27;20039;-64
2023/10/17 06:34:17;;;;;;;0.10;0.10;;;3.20;99.90;;;;;;5090718;27;20048;-64
2023/10/17 06:36:44;;;;;;;0.10;0.10;;;3.20;99.90;;;;;;5093087;28;20061;-64
2023/10/17 06:39:19;;;;;;;0.10;0.10;;;3.20;99.90;;;;;;5120425;27;20127;-64
2023/10/17 06:41:46;;;;;;;0.30;0.30;;;3.20;99.90;;;;;;5120026;27;20039;-64
2023/10/17 06:44:21;;;;;;;1.73;1.58;;;3.20;99.90;;;;;;5111538;27;20048;-64
2023/10/17 06:47:07;;;;;;;0.50;0.50;;;3.20;99.90;;;;;;5094318;27;20044;-64
2023/10/17 06:52:19;;;;;;;0.20;0.20;;;3.20;99.90;;;;;;5087315;27;20043;-64
2023/10/17 06:54:52;;;;;;;0.43;0.40;;;3.20;99.90;;;;;;5118915;27;20042;-64
2023/10/17 06:57:19;;;;;;;0.20;0.20;;;3.30;99.90;;;;;;5114172;27;20478;-64
2023/10/17 07:00:00;;;;;;;0.00;0.00;;;3.30;99.90;;;;;;5078842;28;20032;-63
2023/10/17 07:02:29;;;;;;;0.10;0.10;;;3.40;99.90;;;;;;5069358;28;20032;-64
2023/10/17 07:04:59;;;;;;;0.08;0.08;;;3.50;99.90;;;;;;5120257;27;20066;-64
2023/10/17 07:07:31;;;;;;;0.10;0.10;;;3.60;99.90;;;;;;5086809;28;20036;-64
2023/10/17 07:12:42;;;;;;;0.20;0.20;;;3.70;99.90;;;;;;5081418;27;20487;-64
2023/10/17 07:15:18;;;;;;;0.10;0.10;;;3.90;99.90;;;;;;5116336;27;20047;-64
2023/10/17 07:18:39;;;;;;;0.10;0.10;;;3.90;99.90;;;;;;5083822;28;20039;-63
2023/10/17 07:23:20;;;;;;;0.10;0.10;;;4.10;99.90;;;;;;5083255;28;20051;-64
2023/10/17 07:25:49;;;;;;;0.20;0.20;;;4.30;99.90;;;;;;5119934;27;20051;-64
2023/10/17 07:28:15;;;;;;;0.00;0.00;;;4.30;99.90;;;;;;5113232;27;20049;-63
2023/10/17 07:30:49;;;;;;;0.40;0.40;;;4.50;99.90;;;;;;5086677;28;20108;-64
2023/10/17 07:33:17;;;;;;;0.20;0.20;;;4.50;99.90;;;;;;5116557;27;20039;-63
2023/10/17 07:35:43;;;;;;;0.10;0.10;;;4.60;99.90;;;;;;5082959;27;20166;-64
2023/10/17 07:38:09;;;;;;;0.30;0.20;;;4.70;99.90;;;;;;5115341;27;20130;-63
2023/10/17 07:43:07;;;;;;;0.60;0.20;;;4.90;99.90;;;;;;5085805;28;20109;-64
2023/10/17 07:45:39;;;;;;;0.10;0.10;;;5.00;99.90;;;;;;5117695;27;20043;-64
2023/10/17 07:48:20;;;;;;;0.10;0.10;;;5.10;99.90;;;;;;5085626;28;20047;-64
2023/10/17 07:50:47;;;;;;;0.00;0.00;;;5.20;99.90;;;;;;5086108;28;20126;-64
2023/10/17 07:53:19;;;;;;;0.10;0.10;;;5.30;99.90;;;;;;5110514;27;20051;-64
2023/10/17 07:55:48;;;;;;;0.10;0.10;;;5.40;99.90;;;;;;5116404;27;20044;-64
2023/10/17 07:58:17;;;;;;;0.20;0.20;;;5.50;99.90;;;;;;5116067;27;20050;-64
2023/10/17 08:00:43;;;;;;;0.10;0.10;;;5.70;99.90;;;;;;5113405;27;20165;-64
2023/10/17 08:05:38;;;;;;;0.10;0.10;;;5.90;99.90;;;;;;5082902;28;20046;-64
2023/10/17 08:08:08;;;;;;;0.10;0.10;;;6.00;99.90;;;;;;5079735;28;20089;-64
2023/10/17 08:10:39;;;;;;;0.00;0.00;;;6.10;99.90;;;;;;5084752;28;20084;-64
2023/10/17 08:13:08;;;;;;;0.10;0.10;;;6.20;99.90;;;;;;5080634;27;20643;-64
2023/10/17 08:15:53;;;;;;;0.00;0.00;;;6.30;99.90;;;;;;5100640;28;20457;-64
2023/10/17 08:18:23;;;;;;;0.08;0.08;;;6.40;99.90;;;;;;5080274;28;20114;-64
2023/10/17 08:23:40;;;;;;;0.10;0.10;;;6.70;99.90;;;;;;5102214;27;20043;-64
2023/10/17 08:26:11;;;;;;;0.28;0.28;;;6.80;99.90;;;;;;5118739;27;20079;-65
2023/10/17 08:31:27;;;;;;;0.10;0.10;;;6.90;99.90;;;;;;5081323;28;20238;-64
2023/10/17 08:36:42;;;;;;;0.28;0.28;;;7.10;99.90;;;;;;5083640;28;20128;-64
2023/10/17 08:39:51;;;;;;;0.55;0.45;;;7.20;99.90;;;;;;5091642;28;20035;-64
2023/10/17 08:42:30;;;;;;;0.40;0.40;;;7.30;99.90;;;;;;5077646;28;20048;-65
2023/10/17 08:45:04;;;;;;;0.13;0.13;;;7.30;99.90;;;;;;5128803;27;20100;-64
2023/10/17 08:47:30;;;;;;;0.20;0.20;;;7.50;99.90;;;;;;5091832;28;20111;-64
2023/10/17 08:50:01;;;;;;;0.00;0.00;;;7.50;99.90;;;;;;5076194;28;20083;-64
2023/10/17 08:52:27;;;;;;;0.10;0.10;;;7.50;99.90;;;;;;5080478;28;20034;-64
2023/10/17 08:54:53;;;;;;;0.10;0.10;;;7.60;99.90;;;;;;5128119;27;20060;-64
2023/10/17 08:57:19;;;;;;;0.52;0.52;;;7.70;99.90;;;;;;5086569;28;20047;-64
2023/10/17 09:02:29;;;;;;;0.08;0.08;;;7.80;99.90;;;;;;5088395;28;20520;-64
2023/10/17 09:05:25;;;;;;;0.00;0.00;;;7.90;99.90;;;;;;5093949;28;20482;-64
2023/10/17 09:07:55;;;;;;;0.10;0.10;;;8.00;99.90;;;;;;5124540;27;20074;-64
2023/10/17 09:10:36;;;;;;;0.10;0.10;;;8.10;99.90;;;;;;5090171;28;20032;-64
2023/10/17 09:15:56;;;;;;;0.15;0.15;;;8.20;99.90;;;;;;5074005;28;20097;-64
2023/10/17 09:18:28;;;;;;;0.10;0.10;;;8.20;99.90;;;;;;5086378;27;20044;-64
2023/10/17 09:21:03;;;;;;;0.17;0.10;;;8.30;99.90;;;;;;5112583;27;20069;-64
2023/10/17 09:23:30;;;;;;;0.22;0.22;;;8.40;99.90;;;;;;5089767;28;20051;-64
2023/10/17 09:26:07;;;;;;;0.00;0.00;;;8.50;99.90;;;;;;5126883;27;20047;-65
2023/10/17 09:28:33;;;;;;;0.10;0.10;;;8.50;99.90;;;;;;5083918;28;20036;-65
2023/10/17 09:31:06;;;;;;;0.00;0.00;;;8.50;99.90;;;;;;5086326;28;20096;-64
2023/10/17 09:33:33;;;;;;;0.20;0.20;;;8.60;99.90;;;;;;5082078;28;20383;-64
2023/10/17 09:36:03;;;;;;;0.10;0.10;;;8.60;99.90;;;;;;5116732;27;20596;-64
2023/10/17 09:38:31;;;;;;;0.30;0.30;;;8.70;99.90;;;;;;5084487;28;20504;-64
2023/10/17 09:41:01;;;;;;;0.90;0.25;;;8.80;99.90;;;;;;5092068;28;20044;-65
2023/10/17 09:43:26;;;;;;;0.30;0.30;;;8.80;99.90;;;;;;5090055;28;20047;-65
2023/10/17 09:45:52;;;;;;;0.20;0.20;;;8.90;99.90;;;;;;5091647;28;20047;-64
2023/10/17 09:48:32;;;;;;;0.10;0.10;;;9.00;99.90;;;;;;5085060;28;20039;-64
2023/10/17 09:51:01;;;;;;;0.52;0.52;;;9.10;99.90;;;;;;5125376;27;20043;-64
2023/10/17 09:53:31;;;;;;;0.20;0.20;;;9.20;99.90;;;;;;5086444;28;20122;-65
2023/10/17 09:56:00;;;;;;;0.10;0.10;;;9.30;99.90;;;;;;5081232;28;20047;-64
2023/10/17 09:58:38;;;;;;;0.55;0.35;;;9.30;99.90;;;;;;5089863;28;20570;-65
2023/10/17 10:01:13;;;;;;;0.10;0.10;;;9.40;99.90;;;;;;5103115;28;20055;-65
2023/10/17 10:03:40;;;;;;;0.00;0.00;;;9.50;99.90;;;;;;5121886;27;20050;-66
2023/10/17 10:06:19;;;;;;;0.10;0.10;;;9.60;99.90;;;;;;5086717;28;20118;-65
2023/10/17 10:08:45;;;;;;;0.10;0.10;;;9.70;99.90;;;;;;5069912;28;20486;-65
2023/10/17 10:11:11;;;;;;;0.10;0.10;;;9.70;99.90;;;;;;5089358;28;20040;-65
2023/10/17 10:14:08;;;;;;;0.40;0.40;;;9.80;99.90;;;;;;5106932;28;20050;-65
2023/10/17 10:16:54;;;;;;;0.32;0.32;;;9.90;99.90;;;;;;5080952;28;20032;-65
2023/10/17 10:19:21;;;;;;;0.10;0.10;;;9.90;99.90;;;;;;5123859;28;20628;-65
2023/10/17 10:22:02;;;;;;;0.03;0.03;;;10.00;99.90;;;;;;5089088;28;20070;-66
2023/10/17 10:24:32;;;;;;;0.10;0.10;;;10.00;99.90;;;;;;5124499;28;20514;-66
2023/10/17 10:27:16;;;;;;;0.47;0.30;;;10.10;99.90;;;;;;5089159;28;20044;-66
2023/10/17 10:29:47;;;;;;;0.20;0.20;;;10.10;99.90;;;;;;5115935;28;20043;-68
2023/10/17 10:32:25;;;;;;;0.20;0.20;;;10.20;99.90;;;;;;5089036;28;20036;-68
2023/10/17 10:34:51;;;;;;;0.20;0.20;;;10.30;99.90;;;;;;5088061;28;20325;-66
2023/10/17 10:37:18;;;;;;;0.25;0.22;;;10.30;99.90;;;;;;5087627;28;20032;-69
2023/10/17 10:40:12;;;;;;;0.15;0.15;;;10.40;99.90;;;;;;5082713;28;20119;-67
2023/10/17 10:42:47;;;;;;;0.28;0.28;;;10.40;99.90;;;;;;5106580;28;20048;-67
2023/10/17 10:45:24;;;;;;;0.10;0.10;;;10.50;99.90;;;;;;5089346;28;20027;-69
2023/10/17 10:47:57;;;;;;;0.10;0.10;;;10.50;99.90;;;;;;5082304;28;20063;-67
2023/10/17 10:50:25;;;;;;;0.15;0.10;;;10.50;99.90;;;;;;5091340;28;20047;-69
2023/10/17 10:52:50;;;;;;;0.10;0.10;;;10.60;99.90;;;;;;5088791;28;20047;-69
2023/10/17 10:55:17;;;;;;;0.00;0.00;;;10.50;99.90;;;;;;5091891;28;20126;-67
2023/10/17 10:57:43;;;;;;;0.05;0.05;;;10.60;99.90;;;;;;5082884;28;20045;-67
2023/10/17 11:00:09;;;;;;;0.20;0.20;;;10.60;99.90;;;;;;5091427;28;20551;-67
2023/10/17 11:02:36;;;;;;;0.60;0.55;;;10.60;99.90;;;;;;5087066;28;20044;-68
2023/10/17 11:05:04;;;;;;;0.10;0.10;;;10.60;99.90;;;;;;5088680;28;20048;-67
2023/10/17 11:07:31;;;;;;;0.10;0.10;;;10.70;99.90;;;;;;5084515;28;20257;-66
2023/10/17 11:10:10;;;;;;;0.00;0.00;;;10.70;99.90;;;;;;5083129;28;20044;-67
2023/10/17 11:12:37;;;;;;;2.05;0.20;;;10.70;99.90;;;;;;5091190;28;20078;-70
2023/10/17 11:15:09;;;;;;;0.20;0.20;;;10.80;99.90;;;;;;5095479;28;20031;-66
2023/10/17 11:17:35;;;;;;;0.08;0.08;;;10.80;99.90;;;;;;5088001;28;20035;-67
2023/10/17 11:20:00;;;;;;;0.73;0.22;;;10.80;99.90;;;;;;5087026;28;20054;-68
2023/10/17 11:22:28;;;;;;;0.22;0.22;;;10.80;99.90;;;;;;5092180;28;20497;-68
2023/10/17 11:24:55;;;;;;;0.17;0.17;;;10.80;99.90;;;;;;5093380;28;20482;-68
2023/10/17 11:27:23;;;;;;;0.10;0.10;;;10.90;99.90;;;;;;5089571;28;20071;-68
2023/10/17 11:29:51;;;;;;;0.20;0.20;;;10.90;99.90;;;;;;5088179;28;20048;-68
2023/10/17 11:32:17;;;;;;;0.10;0.10;;;10.90;99.90;;;;;;5082759;28;20082;-69
2023/10/17 11:34:48;;;;;;;0.10;0.10;;;11.00;99.90;;;;;;5126463;27;20075;-70
2023/10/17 11:37:19;;;;;;;0.10;0.10;;;11.00;99.90;;;;;;5085963;28;20074;-67
2023/10/17 11:39:50;;;;;;;2.53;1.30;;;11.00;99.90;;;;;;5083770;28;20050;-69
2023/10/17 11:42:33;;;;;;;0.10;0.10;;;11.10;99.90;;;;;;5086087;28;20082;-71
2023/10/17 11:44:59;;;;;;;0.10;0.10;;;11.10;99.90;;;;;;5075066;28;20078;-68
2023/10/17 11:47:28;;;;;;;0.13;0.13;;;11.10;99.90;;;;;;5082198;28;20076;-68
2023/10/17 11:49:54;;;;;;;0.10;0.10;;;11.20;99.90;;;;;;5088047;28;20043;-67
2023/10/17 11:52:20;;;;;;;0.28;0.28;;;11.20;99.90;;;;;;5072885;28;20040;-69
2023/10/17 11:55:00;;;;;;;0.10;0.10;;;11.20;99.90;;;;;;5084791;28;20073;-68
2023/10/17 11:57:27;;;;;;;0.28;0.28;;;11.20;99.90;;;;;;5104141;27;20043;-69
2023/10/17 12:00:07;;;;;;;0.73;0.30;;;11.20;99.90;;;;;;5083615;28;20044;-68
2023/10/17 12:02:33;;;;;;;0.10;0.10;;;11.20;99.90;;;;;;5086835;28;20429;-68
2023/10/17 12:05:03;;;;;;;0.25;0.25;;;11.20;99.90;;;;;;5116915;27;20042;-67
2023/10/17 12:07:29;;;;;;;0.10;0.10;;;11.20;99.90;;;;;;5087602;28;20036;-68
2023/10/17 12:10:02;;;;;;;0.15;0.15;;;11.20;99.90;;;;;;5082755;28;20564;-68
2023/10/17 12:12:28;;;;;;;0.10;0.10;;;11.20;99.90;;;;;;5084416;28;20039;-66
2023/10/17 12:14:54;;;;;;;0.10;0.10;;;11.20;99.90;;;;;;5086469;28;20040;-68
2023/10/17 12:17:20;;;;;;;0.10;0.10;;;11.20;99.90;;;;;;5091405;28;20496;-70
2023/10/17 12:19:46;;;;;;;0.10;0.10;;;11.20;99.90;;;;;;5120683;27;20100;-68
2023/10/17 12:22:12;;;;;;;0.00;0.00;;;11.20;99.90;;;;;;5066090;28;20077;-69
2023/10/17 12:24:38;;;;;;;0.10;0.10;;;11.20;99.90;;;;;;5091431;28;20032;-68
2023/10/17 12:27:06;;;;;;;0.10;0.10;;;11.20;99.90;;;;;;5090165;28;20554;-68
2023/10/17 12:29:34;;;;;;;0.70;0.70;;;11.20;99.90;;;;;;5080272;28;20039;-69
2023/10/17 12:32:01;;;;;;;1.85;1.75;;;11.20;99.90;;;;;;5117750;27;20160;-68
2023/10/17 12:34:30;;;;;;;0.10;0.10;;;11.20;99.90;;;;;;5083730;28;20087;-68
2023/10/17 12:36:55;;;;;;;0.00;0.00;;;11.20;99.90;;;;;;5085498;27;20090;-69
2023/10/17 12:39:21;;;;;;;1.25;0.20;;;11.20;99.90;;;;;;5079762;28;20032;-68
2023/10/17 12:41:48;;;;;;;0.32;0.10;;;11.30;99.90;;;;;;5090032;28;20075;-67
2023/10/17 12:44:15;;;;;;;0.55;0.55;;;11.30;99.90;;;;;;5076385;28;20131;-68
2023/10/17 12:46:42;;;;;;;0.10;0.10;;;11.30;99.90;;;;;;5103590;28;20380;-68
2023/10/17 12:49:10;;;;;;;0.10;0.10;;;11.30;99.90;;;;;;5108577;28;20046;-69
2023/10/17 12:51:39;;;;;;;0.30;0.30;;;11.30;99.90;;;;;;5093120;28;20594;-69
2023/10/17 12:54:07;;;;;;;0.30;0.30;;;11.30;99.90;;;;;;5091211;28;20482;-68
2023/10/17 12:56:36;;;;;;;0.55;0.50;;;11.30;99.90;;;;;;5113927;27;20110;-69
2023/10/17 12:59:03;;;;;;;0.30;0.30;;;11.30;99.90;;;;;;5081179;28;20290;-68
2023/10/17 13:01:29;;;;;;;0.20;0.20;;;11.30;99.90;;;;;;5088044;28;20141;-69
2023/10/17 13:03:57;;;;;;;0.10;0.10;;;11.30;99.90;;;;;;5085927;28;20719;-68
2023/10/17 13:06:25;;;;;;;0.75;0.30;;;11.30;99.90;;;;;;5117308;27;20043;-68
2023/10/17 13:08:56;;;;;;;0.20;0.20;;;11.30;99.90;;;;;;5123577;27;20085;-68
2023/10/17 13:11:26;;;;;;;0.10;0.10;;;11.30;99.90;;;;;;5090100;28;20043;-66
2023/10/17 13:13:52;;;;;;;0.00;0.00;;;11.30;99.90;;;;;;5122973;27;20464;-68
2023/10/17 13:16:20;;;;;;;0.00;0.00;;;11.30;99.90;;;;;;5091401;28;20078;-69
2023/10/17 13:18:47;;;;;;;4.68;0.35;;;11.30;99.90;;;;;;5121977;27;20040;-68
2023/10/17 13:21:14;;;;;;;0.20;0.20;;;11.30;99.90;;;;;;5121001;27;20050;-68
2023/10/17 13:23:40;;;;;;;0.10;0.10;;;11.30;99.90;;;;;;5091839;28;20185;-68
2023/10/17 13:26:13;;;;;;;0.10;0.10;;;11.30;99.90;;;;;;5083348;28;20051;-69
2023/10/17 13:28:39;;;;;;;0.10;0.10;;;11.30;99.90;;;;;;5084071;28;20508;-69
2023/10/17 13:31:09;;;;;;;0.20;0.20;;;11.30;99.90;;;;;;5090987;28;20050;-68
2023/10/17 13:33:35;;;;;;;0.20;0.20;;;11.30;99.90;;;;;;5087303;28;20390;-68
2023/10/17 13:36:00;;;;;;;0.25;0.25;;;11.20;99.90;;;;;;5072047;28;20036;-70
2023/10/17 13:38:26;;;;;;;0.10;0.10;;;11.20;99.90;;;;;;5072358;28;20044;-69
2023/10/17 13:40:51;;;;;;;0.77;0.20;;;11.20;99.90;;;;;;5087815;28;20058;-70
2023/10/17 13:43:17;;;;;;;0.20;0.20;;;11.20;99.90;;;;;;5087019;28;20474;-68
2023/10/17 13:45:43;;;;;;;1.02;0.40;;;11.20;99.90;;;;;;5078306;28;20439;-69
2023/10/17 13:48:09;;;;;;;0.10;0.10;;;11.20;99.90;;;;;;5090277;28;20047;-68
2023/10/17 13:50:36;;;;;;;0.20;0.20;;;11.20;99.90;;;;;;5090386;28;20043;-68
2023/10/17 13:53:07;;;;;;;0.20;0.20;;;11.20;99.90;;;;;;5083587;28;20090;-68
2023/10/17 13:55:38;;;;;;;10.75;0.43;;;11.20;99.90;;;;;;5084638;28;20155;-69
2023/10/17 13:58:04;;;;;;;0.10;0.10;;;11.20;99.90;;;;;;5090982;28;20413;-68
2023/10/17 14:00:43;;;;;;;0.00;0.00;;;11.20;99.90;;;;;;5116215;28;20035;-67
2023/10/17 14:03:12;;;;;;;0.52;0.45;;;11.20;99.90;;;;;;5116998;28;20379;-69
2023/10/17 14:05:41;;;;;;;5.38;0.30;;;11.20;99.90;;;;;;5085277;28;20127;-69
2023/10/17 14:08:13;;;;;;;10.40;0.25;;;11.10;99.90;;;;;;5089056;28;20043;-68
2023/10/17 14:10:46;;;;;;;0.00;0.00;;;11.10;99.90;;;;;;5114299;28;20055;-69
2023/10/17 14:13:12;;;;;;;0.10;0.10;;;11.10;99.90;;;;;;5097653;28;20459;-69
2023/10/17 14:15:39;;;;;;;1.00;0.55;;;11.10;99.90;;;;;;5090697;28;20036;-68
2023/10/17 14:18:14;;;;;;;0.15;0.15;;;11.10;99.90;;;;;;5071896;28;20099;-69
2023/10/17 14:21:04;;;;;;;0.10;0.10;;;11.00;99.90;;;;;;5084988;28;20036;-69
2023/10/17 14:23:32;;;;;;;0.10;0.10;;;11.00;99.90;;;;;;5123759;28;20047;-68
2023/10/17 14:26:03;;;;;;;0.40;0.30;;;10.90;99.90;;;;;;5125083;28;20504;-69
2023/10/17 14:28:32;;;;;;;0.30;0.30;;;10.90;99.90;;;;;;5122485;28;20047;-68
2023/10/17 14:31:01;;;;;;;0.10;0.10;;;10.90;99.90;;;;;;5090123;28;20128;-68
2023/10/17 14:33:27;;;;;;;0.50;0.50;;;10.90;99.90;;;;;;5085447;28;20163;-67
2023/10/17 14:35:52;;;;;;;0.10;0.10;;;10.80;99.90;;;;;;5085849;28;20428;-68
2023/10/17 14:38:18;;;;;;;0.25;0.25;;;10.80;99.90;;;;;;5090092;28;20056;-69
2023/10/17 14:40:44;;;;;;;0.10;0.10;;;10.80;99.90;;;;;;5072858;28;20069;-68
2023/10/17 14:43:12;;;;;;;0.10;0.10;;;10.80;99.90;;;;;;5089517;28;20047;-68
2023/10/17 14:45:42;;;;;;;0.82;0.20;;;10.80;99.90;;;;;;5084128;28;20044;-68
2023/10/17 14:48:09;;;;;;;0.10;0.10;;;10.80;99.90;;;;;;5092764;28;20311;-69
2023/10/17 14:50:34;;;;;;;0.40;0.40;;;10.70;99.90;;;;;;5089476;28;20119;-68
2023/10/17 14:53:01;;;;;;;0.32;0.30;;;10.70;99.90;;;;;;5092860;28;20603;-69
2023/10/17 14:55:28;;;;;;;0.00;0.00;;;10.70;99.90;;;;;;5087827;28;20047;-68
2023/10/17 14:57:53;;;;;;;0.32;0.32;;;10.60;99.90;;;;;;5088485;28;20172;-68
2023/10/17 15:00:20;;;;;;;0.82;0.50;;;10.60;99.90;;;;;;5090436;28;20134;-67
2023/10/17 15:02:47;;;;;;;0.40;0.40;;;10.60;99.90;;;;;;5095257;28;20426;-68
2023/10/17 15:05:13;;;;;;;0.10;0.10;;;10.60;99.90;;;;;;5084350;28;20055;-68
2023/10/17 15:07:40;;;;;;;0.15;0.15;;;10.60;99.90;;;;;;5094920;28;20040;-69
2023/10/17 15:10:13;;;;;;;0.10;0.10;;;10.60;99.90;;;;;;5092432;28;20449;-68
2023/10/17 15:12:43;;;;;;;0.30;0.22;;;10.50;99.90;;;;;;5108678;28;20031;-69
2023/10/17 15:15:16;;;;;;;0.17;0.17;;;10.50;99.90;;;;;;5123911;27;20496;-67
2023/10/17 15:17:42;;;;;;;0.08;0.08;;;10.50;99.90;;;;;;5089928;28;20042;-68
2023/10/17 15:20:12;;;;;;;0.40;0.10;;;10.50;99.90;;;;;;5073228;28;20043;-68
2023/10/17 15:22:45;;;;;;;0.08;0.00;;;10.50;99.90;;;;;;5075344;28;20119;-67
2023/10/17 15:25:12;;;;;;;;;;;10.40;99.90;;;;;;5092879;28;20038;-68
2023/10/17 15:27:39;;;;;;;0.10;0.10;;;10.40;99.90;;;;;;5089560;28;19924;-67
2023/10/17 15:30:05;;;;;;;0.13;0.13;;;10.30;99.90;;;;;;5085279;28;20062;-67
2023/10/17 15:32:31;;;;;;;0.25;0.25;;;10.30;99.90;;;;;;5090166;28;20043;-67
2023/10/17 15:34:57;;;;;;;0.10;0.10;;;10.30;99.90;;;;;;5082139;28;20032;-66
2023/10/17 15:37:22;;;;;;;0.17;0.17;;;10.20;99.90;;;;;;5092849;28;20202;-66